^^
Station Historical Data
 
Daily Summary for September 02, 2014 Units:  Metric    English   Both
« Previous Day
Next Day »
Daily Weekly Monthly Yearly Custom
  Current: High: Low: Average:
Temperature: 17.3 °C 17.8 °C 9.4 °C 12.8 °C
Dew Point: 11.3 °C 12.5 °C 8.2 °C 10.3 °C
Humidity: 68% 96% 63% 86%
Wind Speed: 0.0km/h 0.0km/h 0.0km/h 0km/h
Wind Gust: 0.0km/h 0.0km/h - -
WindCalm - - North
Pressure: 1019.5 hPa 1020.5 hPa 1019.5 hPa -
Precipitation: 0.0 mm      
Historical Graphs
 
 
Tabular Data for September 02, 2014
Time Temperature Dew Point Pressure Wind Wind Speed Wind Gust Humidity Rainfall Rate (Hourly) solar Conditions
00:05 12.1 °C 10.2 °C 1020.5 hPa Calm     88% 0.0 mm 0 W/m2
00:15 11.9 °C 10.0 °C 1020.5 hPa Calm     88% 0.0 mm 0 W/m2
00:20 11.9 °C 10.0 °C 1020.5 hPa Calm     88% 0.0 mm 0 W/m2
00:25 11.8 °C 9.9 °C 1020.5 hPa Calm     88% 0.0 mm 0 W/m2
00:30 11.7 °C 9.9 °C 1020.5 hPa Calm     89% 0.0 mm 0 W/m2
00:35 11.7 °C 9.8 °C 1020.5 hPa Calm     88% 0.0 mm 0 W/m2
00:45 11.6 °C 9.8 °C 1020.5 hPa Calm     89% 0.0 mm 0 W/m2
00:50 11.6 °C 10.0 °C 1020.5 hPa Calm     90% 0.0 mm 0 W/m2
00:55 11.6 °C 10.0 °C 1020.5 hPa Calm     90% 0.0 mm 0 W/m2
01:00 11.6 °C 10.0 °C 1020.5 hPa Calm     90% 0.0 mm 0 W/m2
01:10 11.5 °C 9.9 °C 1020.5 hPa Calm     90% 0.0 mm 0 W/m2
01:15 11.5 °C 9.9 °C 1020.5 hPa Calm     90% 0.0 mm 0 W/m2
01:20 11.5 °C 10.1 °C 1020.5 hPa Calm     91% 0.0 mm 0 W/m2
01:25 11.5 °C 10.1 °C 1020.2 hPa Calm     91% 0.0 mm 0 W/m2
01:30 11.5 °C 10.1 °C 1020.2 hPa Calm     91% 0.0 mm 0 W/m2
01:35 11.4 °C 10.0 °C 1020.2 hPa Calm     91% 0.0 mm 0 W/m2
01:40 11.4 °C 10.0 °C 1020.2 hPa Calm     91% 0.0 mm 0 W/m2
01:45 11.4 °C 10.0 °C 1020.2 hPa Calm     91% 0.0 mm 0 W/m2
01:50 11.3 °C 9.9 °C 1020.2 hPa Calm     91% 0.0 mm 0 W/m2
01:55 11.3 °C 9.7 °C 1020.2 hPa Calm     90% 0.0 mm 0 W/m2
02:00 11.2 °C 9.6 °C 1019.9 hPa Calm     90% 0.0 mm 0 W/m2
02:05 11.1 °C 9.5 °C 1019.9 hPa Calm     90% 0.0 mm 0 W/m2
02:10 11.0 °C 9.4 °C 1019.9 hPa Calm     90% 0.0 mm 0 W/m2
02:15 10.9 °C 9.3 °C 1019.9 hPa Calm     90% 0.0 mm 0 W/m2
02:20 10.8 °C 9.2 °C 1019.9 hPa Calm     90% 0.0 mm 0 W/m2
02:25 10.8 °C 9.2 °C 1019.9 hPa Calm     90% 0.0 mm 0 W/m2
02:30 10.7 °C 9.1 °C 1019.9 hPa Calm     90% 0.0 mm 0 W/m2
02:35 10.6 °C 9.1 °C 1019.9 hPa Calm     90% 0.0 mm 0 W/m2
02:40 10.5 °C 8.9 °C 1019.9 hPa Calm     90% 0.0 mm 0 W/m2
02:45 10.4 °C 8.8 °C 1019.9 hPa Calm     90% 0.0 mm 0 W/m2
02:50 10.3 °C 8.7 °C 1019.9 hPa Calm     90% 0.0 mm 0 W/m2
02:55 10.3 °C 8.7 °C 1019.9 hPa Calm     90% 0.0 mm 0 W/m2
03:00 10.2 °C 8.6 °C 1019.9 hPa Calm     90% 0.0 mm 0 W/m2
03:05 10.2 °C 8.6 °C 1019.9 hPa Calm     90% 0.0 mm 0 W/m2
03:10 10.1 °C 8.6 °C 1019.9 hPa Calm     90% 0.0 mm 0 W/m2
03:20 10.0 °C 8.6 °C 1019.9 hPa Calm     91% 0.0 mm 0 W/m2
03:25 9.9 °C 8.5 °C 1019.9 hPa Calm     91% 0.0 mm 0 W/m2
03:30 9.9 °C 8.5 °C 1019.9 hPa Calm     91% 0.0 mm 0 W/m2
03:35 9.8 °C 8.4 °C 1019.9 hPa Calm     91% 0.0 mm 0 W/m2
03:40 9.8 °C 8.4 °C 1019.9 hPa Calm     91% 0.0 mm 0 W/m2
03:45 9.7 °C 8.3 °C 1019.9 hPa Calm     91% 0.0 mm 0 W/m2
03:50 9.7 °C 8.3 °C 1019.9 hPa Calm     91% 0.0 mm 0 W/m2
03:55 9.7 °C 8.3 °C 1019.9 hPa Calm     91% 0.0 mm 0 W/m2
04:00 9.6 °C 8.2 °C 1019.9 hPa Calm     91% 0.0 mm 0 W/m2
04:05 9.6 °C 8.2 °C 1019.9 hPa Calm     91% 0.0 mm 0 W/m2
04:10 9.6 °C 8.2 °C 1019.9 hPa Calm     91% 0.0 mm 0 W/m2
04:15 9.5 °C 8.3 °C 1019.9 hPa Calm     92% 0.0 mm 0 W/m2
04:20 9.5 °C 8.3 °C 1019.9 hPa Calm     92% 0.0 mm 0 W/m2
04:25 9.4 °C 8.2 °C 1019.9 hPa Calm     92% 0.0 mm 0 W/m2
04:30 9.4 °C 8.2 °C 1019.9 hPa Calm     92% 0.0 mm 0 W/m2
04:35 9.4 °C 8.2 °C 1019.9 hPa Calm     92% 0.0 mm 0 W/m2
04:40 9.4 °C 8.2 °C 1019.9 hPa Calm     92% 0.0 mm 0 W/m2
04:45 9.4 °C 8.2 °C 1019.9 hPa Calm     92% 0.0 mm 0 W/m2
04:50 9.4 °C 8.2 °C 1019.9 hPa Calm     92% 0.0 mm 0 W/m2
04:55 9.4 °C 8.2 °C 1019.9 hPa Calm     92% 0.0 mm 0 W/m2
05:00 9.4 °C 8.3 °C 1019.9 hPa Calm     93% 0.0 mm 0 W/m2
05:05 9.4 °C 8.3 °C 1019.5 hPa Calm     93% 0.0 mm 0 W/m2
05:10 9.4 °C 8.3 °C 1019.9 hPa Calm     93% 0.0 mm 0 W/m2
05:15 9.4 °C 8.3 °C 1019.9 hPa Calm     93% 0.0 mm 0 W/m2
05:20 9.5 °C 8.4 °C 1019.9 hPa Calm     93% 0.0 mm 0 W/m2
05:25 9.5 °C 8.4 °C 1019.9 hPa Calm     93% 0.0 mm 0 W/m2
05:30 9.6 °C 8.5 °C 1019.9 hPa Calm     93% 0.0 mm 0 W/m2
05:35 9.6 °C 8.5 °C 1019.9 hPa Calm     93% 0.0 mm 0 W/m2
05:40 9.7 °C 8.6 °C 1019.9 hPa Calm     93% 0.0 mm 0 W/m2
05:45 9.7 °C 8.6 °C 1019.9 hPa Calm     93% 0.0 mm 0 W/m2
05:50 9.8 °C 8.9 °C 1019.9 hPa Calm     94% 0.0 mm 0 W/m2
06:00 9.8 °C 8.9 °C 1019.9 hPa Calm     94% 0.0 mm 0 W/m2
06:05 9.9 °C 9.0 °C 1019.9 hPa Calm     94% 0.0 mm 0 W/m2
06:10 9.9 °C 9.0 °C 1019.9 hPa Calm     94% 0.0 mm 0 W/m2
06:15 10.0 °C 9.1 °C 1019.9 hPa Calm     94% 0.0 mm 0 W/m2
06:20 10.1 °C 9.2 °C 1020.2 hPa Calm     94% 0.0 mm 0 W/m2
06:25 10.1 °C 9.2 °C 1019.9 hPa Calm     94% 0.0 mm 0 W/m2
06:30 10.2 °C 9.3 °C 1019.9 hPa Calm     94% 0.0 mm 0 W/m2
06:40 10.3 °C 9.6 °C 1019.9 hPa Calm     95% 0.0 mm 0 W/m2
06:45 10.4 °C 9.6 °C 1020.2 hPa Calm     95% 0.0 mm 0 W/m2
06:50 10.4 °C 9.6 °C 1020.2 hPa Calm     95% 0.0 mm 0 W/m2
06:55 10.5 °C 9.7 °C 1019.9 hPa Calm     95% 0.0 mm 5 W/m2
07:00 10.6 °C 9.8 °C 1020.2 hPa Calm     95% 0.0 mm 7 W/m2
07:05 10.6 °C 9.8 °C 1019.9 hPa Calm     95% 0.0 mm 9 W/m2
07:10 10.7 °C 9.9 °C 1020.2 hPa Calm     95% 0.0 mm 11 W/m2
07:15 10.7 °C 9.9 °C 1020.2 hPa Calm     95% 0.0 mm 14 W/m2
07:20 10.7 °C 9.9 °C 1020.2 hPa Calm     95% 0.0 mm 16 W/m2
07:25 10.8 °C 10.1 °C 1020.2 hPa Calm     95% 0.0 mm 19 W/m2
07:30 10.8 °C 10.1 °C 1020.2 hPa Calm     95% 0.0 mm 25 W/m2
07:35 10.8 °C 10.1 °C 1020.2 hPa Calm     95% 0.0 mm 28 W/m2
07:40 10.9 °C 10.1 °C 1020.2 hPa Calm     95% 0.0 mm 33 W/m2
07:45 11.1 °C 10.3 °C 1020.2 hPa Calm     95% 0.0 mm 37 W/m2
07:50 11.1 °C 10.3 °C 1020.2 hPa Calm     95% 0.0 mm 40 W/m2
07:55 11.2 °C 10.4 °C 1020.2 hPa Calm     95% 0.0 mm 44 W/m2
08:00 11.3 °C 10.6 °C 1020.2 hPa Calm     95% 0.0 mm 53 W/m2
08:05 11.4 °C 10.6 °C 1019.9 hPa Calm     95% 0.0 mm 62 W/m2
08:10 11.5 °C 10.9 °C 1020.2 hPa Calm     96% 0.0 mm 69 W/m2
08:15 11.6 °C 11.0 °C 1019.9 hPa Calm     96% 0.0 mm 77 W/m2
08:20 11.7 °C 11.1 °C 1019.9 hPa Calm     96% 0.0 mm 79 W/m2
08:25 11.8 °C 11.2 °C 1019.9 hPa Calm     96% 0.0 mm 84 W/m2
08:30 11.9 °C 11.3 °C 1019.9 hPa Calm     96% 0.0 mm 100 W/m2
08:35 11.9 °C 11.3 °C 1019.9 hPa Calm     96% 0.0 mm 107 W/m2
08:40 12.1 °C 11.5 °C 1019.9 hPa Calm     96% 0.0 mm 121 W/m2
08:45 12.1 °C 11.5 °C 1019.9 hPa Calm     96% 0.0 mm 128 W/m2
08:50 12.2 °C 11.6 °C 1019.9 hPa Calm     96% 0.0 mm 128 W/m2
08:55 12.3 °C 11.7 °C 1019.9 hPa Calm     96% 0.0 mm 135 W/m2
09:00 12.4 °C 11.8 °C 1019.9 hPa Calm     96% 0.0 mm 137 W/m2
09:05 12.4 °C 11.8 °C 1019.9 hPa Calm     96% 0.0 mm 142 W/m2
09:10 12.5 °C 11.7 °C 1020.2 hPa Calm     95% 0.0 mm 141 W/m2
09:15 12.6 °C 11.8 °C 1020.2 hPa Calm     95% 0.0 mm 146 W/m2
09:20 12.7 °C 11.9 °C 1020.2 hPa Calm     95% 0.0 mm 162 W/m2
09:25 12.8 °C 12.0 °C 1020.2 hPa Calm     95% 0.0 mm 171 W/m2
09:30 12.9 °C 12.1 °C 1020.2 hPa Calm     95% 0.0 mm 169 W/m2
09:35 13.1 °C 12.3 °C 1020.2 hPa Calm     95% 0.0 mm 176 W/m2
09:40 13.1 °C 12.3 °C 1020.2 hPa Calm     95% 0.0 mm 183 W/m2
09:45 13.2 °C 12.3 °C 1020.2 hPa Calm     94% 0.0 mm 193 W/m2
09:50 13.3 °C 12.3 °C 1020.2 hPa Calm     94% 0.0 mm 221 W/m2
09:55 13.3 °C 12.2 °C 1020.2 hPa Calm     93% 0.0 mm 218 W/m2
10:00 13.4 °C 12.3 °C 1020.2 hPa Calm     93% 0.0 mm 209 W/m2
10:05 13.5 °C 12.2 °C 1020.2 hPa Calm     92% 0.0 mm 207 W/m2
10:10 13.6 °C 12.2 °C 1020.2 hPa Calm     91% 0.0 mm 213 W/m2
10:15 13.8 °C 12.2 °C 1020.2 hPa Calm     90% 0.0 mm 216 W/m2
10:20 13.9 °C 12.3 °C 1020.2 hPa Calm     90% 0.0 mm 237 W/m2
10:30 14.2 °C 12.1 °C 1020.5 hPa Calm     87% 0.0 mm 251 W/m2
10:35 14.2 °C 11.7 °C 1020.2 hPa Calm     85% 0.0 mm 239 W/m2
10:40 14.2 °C 11.7 °C 1020.2 hPa Calm     85% 0.0 mm 239 W/m2
10:50 14.6 °C 11.9 °C 1020.5 hPa Calm     84% 0.0 mm 253 W/m2
10:55 14.7 °C 12.0 °C 1020.5 hPa Calm     84% 0.0 mm 318 W/m2
11:00 14.8 °C 12.1 °C 1020.2 hPa Calm     84% 0.0 mm 330 W/m2
11:05 15.0 °C 12.5 °C 1020.2 hPa Calm     85% 0.0 mm 283 W/m2
11:10 15.2 °C 12.3 °C 1019.9 hPa Calm     83% 0.0 mm 281 W/m2
11:15 15.2 °C 11.9 °C 1019.9 hPa Calm     81% 0.0 mm 207 W/m2
11:20 15.3 °C 11.9 °C 1019.9 hPa Calm     80% 0.0 mm 167 W/m2
11:25 15.3 °C 11.9 °C 1019.9 hPa Calm     80% 0.0 mm 315 W/m2
11:30 15.4 °C 12.2 °C 1019.9 hPa Calm     81% 0.0 mm 338 W/m2
11:35 15.6 °C 12.2 °C 1019.9 hPa Calm     80% 0.0 mm 554 W/m2
11:40 15.7 °C 11.9 °C 1019.9 hPa Calm     78% 0.0 mm 111 W/m2
11:45 15.9 °C 11.9 °C 1019.9 hPa Calm     77% 0.0 mm 84 W/m2
11:50 16.0 °C 11.4 °C 1019.9 hPa Calm     74% 0.0 mm 132 W/m2
11:55 16.1 °C 11.3 °C 1019.9 hPa Calm     73% 0.0 mm 113 W/m2
12:00 16.2 °C 11.3 °C 1019.9 hPa Calm     73% 0.0 mm 149 W/m2
12:05 16.4 °C 11.3 °C 1019.9 hPa Calm     72% 0.0 mm 313 W/m2
12:10 16.5 °C 11.2 °C 1019.9 hPa Calm     74% 0.0 mm 241 W/m2
12:15 16.6 °C 11.1 °C 1019.9 hPa Calm     70% 0.0 mm 209 W/m2
12:20 16.6 °C 11.3 °C 1019.9 hPa Calm     71% 0.0 mm 789 W/m2
12:25 16.8 °C 11.7 °C 1019.9 hPa Calm     72% 0.0 mm 476 W/m2
12:30 16.9 °C 11.4 °C 1019.9 hPa Calm     70% 0.0 mm 884 W/m2
12:35 17.1 °C 11.8 °C 1019.9 hPa Calm     71% 0.0 mm 332 W/m2
12:40 16.7 °C 11.2 °C 1019.9 hPa Calm     70% 0.0 mm 325 W/m2
12:45 16.6 °C 11.3 °C 1019.9 hPa Calm     71% 0.0 mm 345 W/m2
12:50 16.6 °C 11.7 °C 1019.5 hPa Calm     73% 0.0 mm 348 W/m2
12:55 16.4 °C 10.7 °C 1019.9 hPa Calm     69% 0.0 mm 443 W/m2
13:00 16.5 °C 10.6 °C 1019.9 hPa Calm     68% 0.0 mm 341 W/m2
13:05 16.6 °C 11.1 °C 1019.9 hPa Calm     70% 0.0 mm 418 W/m2
13:10 16.7 °C 11.2 °C 1019.9 hPa Calm     70% 0.0 mm 285 W/m2
13:15 16.5 °C 11.0 °C 1019.5 hPa Calm     70% 0.0 mm 278 W/m2
13:20 16.5 °C 11.0 °C 1019.9 hPa Calm     70% 0.0 mm 325 W/m2
13:25 16.8 °C 11.5 °C 1019.9 hPa Calm     71% 0.0 mm 262 W/m2
13:30 16.7 °C 11.0 °C 1019.9 hPa Calm     69% 0.0 mm 246 W/m2
13:35 16.7 °C 11.4 °C 1019.9 hPa Calm     71% 0.0 mm 195 W/m2
13:40 16.6 °C 11.1 °C 1019.9 hPa Calm     70% 0.0 mm 225 W/m2
13:45 16.5 °C 11.0 °C 1019.9 hPa Calm     70% 0.0 mm 244 W/m2
13:50 16.7 °C 11.2 °C 1019.9 hPa Calm     70% 0.0 mm 445 W/m2
13:55 17.2 °C 11.2 °C 1019.9 hPa Calm     68% 0.0 mm 840 W/m2
14:05 17.8 °C 11.3 °C 1019.9 hPa Calm     66% 0.0 mm 297 W/m2
14:10 17.4 °C 11.0 °C 1019.9 hPa Calm     66% 0.0 mm 207 W/m2
14:15 17.4 °C 11.0 °C 1019.9 hPa Calm     66% 0.0 mm 207 W/m2
14:25 16.9 °C 10.9 °C 1019.5 hPa Calm     68% 0.0 mm 193 W/m2
14:35 17.0 °C 11.3 °C 1019.5 hPa Calm     69% 0.0 mm 200 W/m2
14:40 17.1 °C 11.2 °C 1019.9 hPa Calm     68% 0.0 mm 301 W/m2
14:45 17.4 °C 11.2 °C 1019.9 hPa Calm     67% 0.0 mm 411 W/m2
14:50 17.4 °C 11.0 °C 1019.9 hPa Calm     66% 0.0 mm 448 W/m2
14:55 17.4 °C 10.8 °C 1019.9 hPa Calm     65% 0.0 mm 274 W/m2
15:00 17.3 °C 10.2 °C 1019.5 hPa Calm     63% 0.0 mm 239 W/m2
15:05 17.1 °C 10.7 °C 1019.5 hPa Calm     66% 0.0 mm 193 W/m2
15:10 17.0 °C 10.6 °C 1019.5 hPa Calm     66% 0.0 mm 148 W/m2
15:15 17.0 °C 10.6 °C 1019.5 hPa Calm     66% 0.0 mm 121 W/m2
15:20 17.1 °C 10.9 °C 1019.5 hPa Calm     67% 0.0 mm 137 W/m2
15:25 17.1 °C 10.9 °C 1019.5 hPa Calm     67% 0.0 mm 134 W/m2
15:30 17.2 °C 11.0 °C 1019.5 hPa Calm     67% 0.0 mm 118 W/m2
15:35 17.2 °C 11.2 °C 1019.5 hPa Calm     68% 0.0 mm 134 W/m2
15:40 17.2 °C 11.4 °C 1019.5 hPa Calm     69% 0.0 mm 165 W/m2
15:45 17.2 °C 11.7 °C 1019.5 hPa Calm     70% 0.0 mm 185 W/m2
15:50 17.2 °C 11.2 °C 1019.5 hPa Calm     68% 0.0 mm 192 W/m2
15:55 17.3 °C 11.3 °C 1019.5 hPa Calm     68% 0.0 mm 229 W/m2
Tägerwilen, Thurgau, Switzerland
Compliments of Weather Underground